sensor_id;sensor_type;location;lat;lon;timestamp;temperature;humidity
17726;DHT22;8983;53.156;17.960;2022-09-29T00:00:49;10.00;99.90
17726;DHT22;8983;53.156;17.960;2022-09-29T00:03:17;9.90;99.90
17726;DHT22;8983;53.156;17.960;2022-09-29T00:05:47;9.90;99.90
17726;DHT22;8983;53.156;17.960;2022-09-29T00:08:15;9.90;99.90
17726;DHT22;8983;53.156;17.960;2022-09-29T00:10:45;9.90;99.90
17726;DHT22;8983;53.156;17.960;2022-09-29T00:13:14;9.90;99.90
17726;DHT22;8983;53.156;17.960;2022-09-29T00:15:42;9.70;99.90
17726;DHT22;8983;53.156;17.960;2022-09-29T00:18:10;9.70;99.90
17726;DHT22;8983;53.156;17.960;2022-09-29T00:20:40;9.80;99.90
17726;DHT22;8983;53.156;17.960;2022-09-29T00:23:08;9.80;99.90
17726;DHT22;8983;53.156;17.960;2022-09-29T00:25:36;9.80;99.90
17726;DHT22;8983;53.156;17.960;2022-09-29T00:28:05;9.80;99.90
17726;DHT22;8983;53.156;17.960;2022-09-29T00:30:33;9.80;99.90
17726;DHT22;8983;53.156;17.960;2022-09-29T00:33:01;9.80;99.90
17726;DHT22;8983;53.156;17.960;2022-09-29T00:35:29;9.80;99.90
17726;DHT22;8983;53.156;17.960;2022-09-29T00:37:57;9.80;99.90
17726;DHT22;8983;53.156;17.960;2022-09-29T00:40:25;9.80;99.90
17726;DHT22;8983;53.156;17.960;2022-09-29T00:42:53;9.80;99.90
17726;DHT22;8983;53.156;17.960;2022-09-29T00:45:23;9.80;99.90
17726;DHT22;8983;53.156;17.960;2022-09-29T00:48:03;9.70;99.90
17726;DHT22;8983;53.156;17.960;2022-09-29T00:50:39;9.80;99.90
17726;DHT22;8983;53.156;17.960;2022-09-29T00:53:10;9.80;99.90
17726;DHT22;8983;53.156;17.960;2022-09-29T00:55:47;9.70;99.90
17726;DHT22;8983;53.156;17.960;2022-09-29T00:58:22;9.70;99.90
17726;DHT22;8983;53.156;17.960;2022-09-29T01:00:53;9.70;99.90
17726;DHT22;8983;53.156;17.960;2022-09-29T01:03:23;9.60;99.90
17726;DHT22;8983;53.156;17.960;2022-09-29T01:05:55;9.70;99.90
17726;DHT22;8983;53.156;17.960;2022-09-29T01:08:29;9.60;99.90
17726;DHT22;8983;53.156;17.960;2022-09-29T01:10:58;9.60;99.90
17726;DHT22;8983;53.156;17.960;2022-09-29T01:13:27;9.80;99.90
17726;DHT22;8983;53.156;17.960;2022-09-29T01:15:57;9.90;99.90
17726;DHT22;8983;53.156;17.960;2022-09-29T01:18:25;9.80;99.90
17726;DHT22;8983;53.156;17.960;2022-09-29T01:20:58;9.90;99.90
17726;DHT22;8983;53.156;17.960;2022-09-29T01:29:38;9.90;99.90
17726;DHT22;8983;53.156;17.960;2022-09-29T01:32:18;10.00;99.90
17726;DHT22;8983;53.156;17.960;2022-09-29T01:34:53;10.00;99.90
17726;DHT22;8983;53.156;17.960;2022-09-29T01:37:30;9.90;99.90
17726;DHT22;8983;53.156;17.960;2022-09-29T01:40:09;9.80;99.90
17726;DHT22;8983;53.156;17.960;2022-09-29T01:42:42;9.80;99.90
17726;DHT22;8983;53.156;17.960;2022-09-29T01:45:16;9.80;99.90
17726;DHT22;8983;53.156;17.960;2022-09-29T01:47:49;9.80;99.90
17726;DHT22;8983;53.156;17.960;2022-09-29T01:50:23;9.80;99.90
17726;DHT22;8983;53.156;17.960;2022-09-29T01:52:59;9.80;99.90
17726;DHT22;8983;53.156;17.960;2022-09-29T01:55:29;9.80;99.90
17726;DHT22;8983;53.156;17.960;2022-09-29T01:58:01;9.80;99.90
17726;DHT22;8983;53.156;17.960;2022-09-29T02:00:36;9.90;99.90
17726;DHT22;8983;53.156;17.960;2022-09-29T02:03:10;9.90;99.90
17726;DHT22;8983;53.156;17.960;2022-09-29T02:05:45;9.90;99.90
17726;DHT22;8983;53.156;17.960;2022-09-29T02:08:17;10.00;99.90
17726;DHT22;8983;53.156;17.960;2022-09-29T02:10:50;9.90;99.90
17726;DHT22;8983;53.156;17.960;2022-09-29T02:13:22;10.00;99.90
17726;DHT22;8983;53.156;17.960;2022-09-29T02:15:53;10.00;99.90
17726;DHT22;8983;53.156;17.960;2022-09-29T02:18:30;9.90;99.90
17726;DHT22;8983;53.156;17.960;2022-09-29T02:20:58;10.10;99.90
17726;DHT22;8983;53.156;17.960;2022-09-29T02:23:26;10.10;99.90
17726;DHT22;8983;53.156;17.960;2022-09-29T02:25:56;10.10;99.90
17726;DHT22;8983;53.156;17.960;2022-09-29T02:28:25;10.10;99.90
17726;DHT22;8983;53.156;17.960;2022-09-29T02:30:54;10.10;99.90
17726;DHT22;8983;53.156;17.960;2022-09-29T02:33:25;10.10;99.90
17726;DHT22;8983;53.156;17.960;2022-09-29T02:36:01;10.20;99.90
17726;DHT22;8983;53.156;17.960;2022-09-29T02:38:41;10.20;99.90
17726;DHT22;8983;53.156;17.960;2022-09-29T02:41:19;10.20;99.90
17726;DHT22;8983;53.156;17.960;2022-09-29T02:44:09;10.10;99.90
17726;DHT22;8983;53.156;17.960;2022-09-29T02:46:48;10.20;99.90
17726;DHT22;8983;53.156;17.960;2022-09-29T02:49:37;10.20;99.90
17726;DHT22;8983;53.156;17.960;2022-09-29T02:52:18;10.20;99.90
17726;DHT22;8983;53.156;17.960;2022-09-29T02:54:55;10.10;99.90
17726;DHT22;8983;53.156;17.960;2022-09-29T02:57:32;10.10;99.90
17726;DHT22;8983;53.156;17.960;2022-09-29T03:00:04;10.00;99.90
17726;DHT22;8983;53.156;17.960;2022-09-29T03:02:35;10.10;99.90
17726;DHT22;8983;53.156;17.960;2022-09-29T03:05:08;10.10;99.90
17726;DHT22;8983;53.156;17.960;2022-09-29T03:07:37;10.00;99.90
17726;DHT22;8983;53.156;17.960;2022-09-29T03:10:06;9.90;99.90
17726;DHT22;8983;53.156;17.960;2022-09-29T03:12:35;9.90;99.90
17726;DHT22;8983;53.156;17.960;2022-09-29T03:15:05;9.90;99.90
17726;DHT22;8983;53.156;17.960;2022-09-29T03:17:33;9.90;99.90
17726;DHT22;8983;53.156;17.960;2022-09-29T03:20:02;9.90;99.90
17726;DHT22;8983;53.156;17.960;2022-09-29T03:22:32;9.80;99.90
17726;DHT22;8983;53.156;17.960;2022-09-29T03:25:00;9.80;99.90
17726;DHT22;8983;53.156;17.960;2022-09-29T03:27:28;9.80;99.90
17726;DHT22;8983;53.156;17.960;2022-09-29T03:29:56;9.90;99.90
17726;DHT22;8983;53.156;17.960;2022-09-29T03:32:24;9.90;99.90
17726;DHT22;8983;53.156;17.960;2022-09-29T03:34:52;9.80;99.90
17726;DHT22;8983;53.156;17.960;2022-09-29T03:37:20;9.90;99.90
17726;DHT22;8983;53.156;17.960;2022-09-29T03:39:49;9.90;99.90
17726;DHT22;8983;53.156;17.960;2022-09-29T03:42:17;10.00;99.90
17726;DHT22;8983;53.156;17.960;2022-09-29T03:44:48;10.00;99.90
17726;DHT22;8983;53.156;17.960;2022-09-29T03:47:16;10.00;99.90
17726;DHT22;8983;53.156;17.960;2022-09-29T03:49:44;9.80;99.90
17726;DHT22;8983;53.156;17.960;2022-09-29T03:52:12;9.80;99.90
17726;DHT22;8983;53.156;17.960;2022-09-29T03:54:40;9.80;99.90
17726;DHT22;8983;53.156;17.960;2022-09-29T03:57:09;9.80;99.90
17726;DHT22;8983;53.156;17.960;2022-09-29T03:59:37;9.80;99.90
17726;DHT22;8983;53.156;17.960;2022-09-29T04:02:11;9.80;99.90
17726;DHT22;8983;53.156;17.960;2022-09-29T04:04:39;9.80;99.90
17726;DHT22;8983;53.156;17.960;2022-09-29T04:07:07;9.90;99.90
17726;DHT22;8983;53.156;17.960;2022-09-29T04:09:35;9.90;99.90
17726;DHT22;8983;53.156;17.960;2022-09-29T04:12:04;9.90;99.90
17726;DHT22;8983;53.156;17.960;2022-09-29T04:14:33;9.90;99.90
17726;DHT22;8983;53.156;17.960;2022-09-29T04:17:01;9.90;99.90
17726;DHT22;8983;53.156;17.960;2022-09-29T04:19:29;9.90;99.90
17726;DHT22;8983;53.156;17.960;2022-09-29T04:21:57;9.90;99.90
17726;DHT22;8983;53.156;17.960;2022-09-29T04:24:25;9.90;99.90
17726;DHT22;8983;53.156;17.960;2022-09-29T04:26:53;9.90;99.90
17726;DHT22;8983;53.156;17.960;2022-09-29T04:29:21;9.80;99.90
17726;DHT22;8983;53.156;17.960;2022-09-29T04:31:50;9.80;99.90
17726;DHT22;8983;53.156;17.960;2022-09-29T04:34:18;9.80;99.90
17726;DHT22;8983;53.156;17.960;2022-09-29T04:36:46;9.80;99.90
17726;DHT22;8983;53.156;17.960;2022-09-29T04:39:14;9.90;99.90
17726;DHT22;8983;53.156;17.960;2022-09-29T04:41:42;9.90;99.90
17726;DHT22;8983;53.156;17.960;2022-09-29T04:44:11;9.90;99.90
17726;DHT22;8983;53.156;17.960;2022-09-29T04:46:39;9.90;99.90
17726;DHT22;8983;53.156;17.960;2022-09-29T04:49:09;9.90;99.90
17726;DHT22;8983;53.156;17.960;2022-09-29T04:51:37;9.90;99.90
17726;DHT22;8983;53.156;17.960;2022-09-29T04:54:05;9.80;99.90
17726;DHT22;8983;53.156;17.960;2022-09-29T04:56:33;9.70;99.90
17726;DHT22;8983;53.156;17.960;2022-09-29T04:59:01;9.70;99.90
17726;DHT22;8983;53.156;17.960;2022-09-29T05:01:29;9.60;99.90
17726;DHT22;8983;53.156;17.960;2022-09-29T05:03:57;9.60;99.90
17726;DHT22;8983;53.156;17.960;2022-09-29T05:06:26;9.60;99.90
17726;DHT22;8983;53.156;17.960;2022-09-29T05:08:54;9.60;99.90
17726;DHT22;8983;53.156;17.960;2022-09-29T05:11:22;9.60;99.90
17726;DHT22;8983;53.156;17.960;2022-09-29T05:13:50;9.60;99.90
17726;DHT22;8983;53.156;17.960;2022-09-29T05:16:18;9.60;99.90
17726;DHT22;8983;53.156;17.960;2022-09-29T05:18:47;9.60;99.90
17726;DHT22;8983;53.156;17.960;2022-09-29T05:21:15;9.60;99.90
17726;DHT22;8983;53.156;17.960;2022-09-29T05:24:00;9.60;99.90
17726;DHT22;8983;53.156;17.960;2022-09-29T05:26:28;9.50;99.90
17726;DHT22;8983;53.156;17.960;2022-09-29T05:28:56;9.50;99.90
17726;DHT22;8983;53.156;17.960;2022-09-29T05:31:24;9.40;99.90
17726;DHT22;8983;53.156;17.960;2022-09-29T05:33:53;9.40;99.90
17726;DHT22;8983;53.156;17.960;2022-09-29T05:36:22;9.50;99.90
17726;DHT22;8983;53.156;17.960;2022-09-29T05:38:50;9.40;99.90
17726;DHT22;8983;53.156;17.960;2022-09-29T05:41:20;9.50;99.90
17726;DHT22;8983;53.156;17.960;2022-09-29T05:43:50;9.60;99.90
17726;DHT22;8983;53.156;17.960;2022-09-29T05:46:19;9.60;99.90
17726;DHT22;8983;53.156;17.960;2022-09-29T05:48:49;9.60;99.90
17726;DHT22;8983;53.156;17.960;2022-09-29T05:51:19;9.60;99.90
17726;DHT22;8983;53.156;17.960;2022-09-29T05:53:49;9.70;99.90
17726;DHT22;8983;53.156;17.960;2022-09-29T05:56:21;9.60;99.90
17726;DHT22;8983;53.156;17.960;2022-09-29T05:58:50;9.60;99.90
17726;DHT22;8983;53.156;17.960;2022-09-29T06:01:20;9.50;99.90
17726;DHT22;8983;53.156;17.960;2022-09-29T06:03:48;9.50;99.90
17726;DHT22;8983;53.156;17.960;2022-09-29T06:06:19;9.60;99.90
17726;DHT22;8983;53.156;17.960;2022-09-29T06:08:49;9.60;99.90
17726;DHT22;8983;53.156;17.960;2022-09-29T06:11:20;9.60;99.90
17726;DHT22;8983;53.156;17.960;2022-09-29T06:13:50;9.60;99.90
17726;DHT22;8983;53.156;17.960;2022-09-29T06:16:20;9.60;99.90
17726;DHT22;8983;53.156;17.960;2022-09-29T06:18:49;9.70;99.90
17726;DHT22;8983;53.156;17.960;2022-09-29T06:21:19;9.70;99.90
17726;DHT22;8983;53.156;17.960;2022-09-29T06:23:47;9.60;99.90
17726;DHT22;8983;53.156;17.960;2022-09-29T06:26:17;9.60;99.90
17726;DHT22;8983;53.156;17.960;2022-09-29T06:28:51;9.70;99.90
17726;DHT22;8983;53.156;17.960;2022-09-29T06:31:21;9.90;99.90
17726;DHT22;8983;53.156;17.960;2022-09-29T06:33:49;9.80;99.90
17726;DHT22;8983;53.156;17.960;2022-09-29T06:36:19;9.80;99.90
17726;DHT22;8983;53.156;17.960;2022-09-29T06:39:10;9.70;99.90
17726;DHT22;8983;53.156;17.960;2022-09-29T06:41:38;9.70;99.90
17726;DHT22;8983;53.156;17.960;2022-09-29T06:44:08;9.70;99.90
17726;DHT22;8983;53.156;17.960;2022-09-29T06:46:36;9.60;99.90
17726;DHT22;8983;53.156;17.960;2022-09-29T06:49:04;9.60;99.90
17726;DHT22;8983;53.156;17.960;2022-09-29T06:51:34;9.60;99.90
17726;DHT22;8983;53.156;17.960;2022-09-29T06:54:11;9.50;99.90
17726;DHT22;8983;53.156;17.960;2022-09-29T06:56:39;9.50;99.90
17726;DHT22;8983;53.156;17.960;2022-09-29T06:59:09;9.60;99.90
17726;DHT22;8983;53.156;17.960;2022-09-29T07:01:37;9.70;99.90
17726;DHT22;8983;53.156;17.960;2022-09-29T07:04:05;9.80;99.90
17726;DHT22;8983;53.156;17.960;2022-09-29T07:06:33;9.80;99.90
17726;DHT22;8983;53.156;17.960;2022-09-29T07:09:01;9.80;99.90
17726;DHT22;8983;53.156;17.960;2022-09-29T07:11:29;9.70;99.90
17726;DHT22;8983;53.156;17.960;2022-09-29T07:13:58;9.70;99.90
17726;DHT22;8983;53.156;17.960;2022-09-29T07:16:28;9.60;99.90
17726;DHT22;8983;53.156;17.960;2022-09-29T07:18:56;9.60;99.90
17726;DHT22;8983;53.156;17.960;2022-09-29T07:21:24;9.60;99.90
17726;DHT22;8983;53.156;17.960;2022-09-29T07:23:52;9.70;99.90
17726;DHT22;8983;53.156;17.960;2022-09-29T07:26:25;9.70;99.90
17726;DHT22;8983;53.156;17.960;2022-09-29T07:28:53;9.90;99.90
17726;DHT22;8983;53.156;17.960;2022-09-29T07:31:21;9.90;99.90
17726;DHT22;8983;53.156;17.960;2022-09-29T07:33:51;9.90;99.90
17726;DHT22;8983;53.156;17.960;2022-09-29T07:36:19;9.80;99.90
17726;DHT22;8983;53.156;17.960;2022-09-29T07:38:49;9.90;99.90
17726;DHT22;8983;53.156;17.960;2022-09-29T07:41:19;10.00;99.90
17726;DHT22;8983;53.156;17.960;2022-09-29T07:43:47;10.00;99.90
17726;DHT22;8983;53.156;17.960;2022-09-29T07:46:16;10.10;99.90
17726;DHT22;8983;53.156;17.960;2022-09-29T07:48:44;10.10;99.90
17726;DHT22;8983;53.156;17.960;2022-09-29T07:51:15;10.20;99.90
17726;DHT22;8983;53.156;17.960;2022-09-29T07:53:44;10.20;99.90
17726;DHT22;8983;53.156;17.960;2022-09-29T07:56:13;10.10;99.90
17726;DHT22;8983;53.156;17.960;2022-09-29T07:58:43;9.90;99.90
17726;DHT22;8983;53.156;17.960;2022-09-29T08:01:12;10.10;99.90
17726;DHT22;8983;53.156;17.960;2022-09-29T08:03:43;9.90;99.90
17726;DHT22;8983;53.156;17.960;2022-09-29T08:06:14;10.10;99.90
17726;DHT22;8983;53.156;17.960;2022-09-29T08:08:42;10.10;99.90
17726;DHT22;8983;53.156;17.960;2022-09-29T08:11:25;10.20;99.90
17726;DHT22;8983;53.156;17.960;2022-09-29T08:13:59;10.10;99.90
17726;DHT22;8983;53.156;17.960;2022-09-29T08:16:30;10.10;99.90
17726;DHT22;8983;53.156;17.960;2022-09-29T08:18:58;10.20;99.90
17726;DHT22;8983;53.156;17.960;2022-09-29T08:21:28;10.20;99.90
17726;DHT22;8983;53.156;17.960;2022-09-29T08:23:57;10.20;99.90
17726;DHT22;8983;53.156;17.960;2022-09-29T08:26:28;10.30;99.90
17726;DHT22;8983;53.156;17.960;2022-09-29T08:29:09;10.40;99.90
17726;DHT22;8983;53.156;17.960;2022-09-29T08:31:42;10.40;99.90
17726;DHT22;8983;53.156;17.960;2022-09-29T08:34:11;10.40;99.90
17726;DHT22;8983;53.156;17.960;2022-09-29T08:36:41;10.50;99.90
17726;DHT22;8983;53.156;17.960;2022-09-29T08:39:10;10.60;99.90
17726;DHT22;8983;53.156;17.960;2022-09-29T08:41:48;10.70;99.90
17726;DHT22;8983;53.156;17.960;2022-09-29T08:44:21;10.80;99.90
17726;DHT22;8983;53.156;17.960;2022-09-29T08:47:12;10.90;99.90
17726;DHT22;8983;53.156;17.960;2022-09-29T08:49:43;11.00;99.90
17726;DHT22;8983;53.156;17.960;2022-09-29T08:52:18;11.20;99.90
17726;DHT22;8983;53.156;17.960;2022-09-29T08:54:48;11.20;99.90
17726;DHT22;8983;53.156;17.960;2022-09-29T08:57:19;11.30;99.90
17726;DHT22;8983;53.156;17.960;2022-09-29T08:59:52;11.40;99.90
17726;DHT22;8983;53.156;17.960;2022-09-29T09:05:32;11.40;99.90
17726;DHT22;8983;53.156;17.960;2022-09-29T09:08:18;11.40;99.90
17726;DHT22;8983;53.156;17.960;2022-09-29T09:10:53;11.50;99.90
17726;DHT22;8983;53.156;17.960;2022-09-29T09:13:44;11.60;99.90
17726;DHT22;8983;53.156;17.960;2022-09-29T09:16:23;11.60;99.90
17726;DHT22;8983;53.156;17.960;2022-09-29T09:21:50;11.70;99.90
17726;DHT22;8983;53.156;17.960;2022-09-29T09:24:29;11.70;99.90
17726;DHT22;8983;53.156;17.960;2022-09-29T09:27:03;11.70;99.90
17726;DHT22;8983;53.156;17.960;2022-09-29T09:29:33;11.70;99.90
17726;DHT22;8983;53.156;17.960;2022-09-29T09:32:08;11.70;99.90
17726;DHT22;8983;53.156;17.960;2022-09-29T09:34:40;11.80;99.90
17726;DHT22;8983;53.156;17.960;2022-09-29T09:37:15;11.90;99.90
17726;DHT22;8983;53.156;17.960;2022-09-29T09:39:54;11.80;99.90
17726;DHT22;8983;53.156;17.960;2022-09-29T09:42:25;11.80;99.90
17726;DHT22;8983;53.156;17.960;2022-09-29T09:44:58;11.70;99.90
17726;DHT22;8983;53.156;17.960;2022-09-29T09:47:29;11.70;99.90
17726;DHT22;8983;53.156;17.960;2022-09-29T09:50:00;11.70;99.90
17726;DHT22;8983;53.156;17.960;2022-09-29T09:52:36;11.80;99.90
17726;DHT22;8983;53.156;17.960;2022-09-29T09:55:14;11.90;99.90
17726;DHT22;8983;53.156;17.960;2022-09-29T09:57:56;11.90;99.90
17726;DHT22;8983;53.156;17.960;2022-09-29T10:00:29;12.00;99.90
17726;DHT22;8983;53.156;17.960;2022-09-29T10:03:02;12.00;99.90
17726;DHT22;8983;53.156;17.960;2022-09-29T10:05:34;12.00;99.90
17726;DHT22;8983;53.156;17.960;2022-09-29T10:08:06;12.00;99.90
17726;DHT22;8983;53.156;17.960;2022-09-29T10:10:35;12.00;99.90
17726;DHT22;8983;53.156;17.960;2022-09-29T10:13:24;12.00;99.90
17726;DHT22;8983;53.156;17.960;2022-09-29T10:15:55;12.00;99.90
17726;DHT22;8983;53.156;17.960;2022-09-29T10:18:28;12.00;99.90
17726;DHT22;8983;53.156;17.960;2022-09-29T10:20:57;11.90;99.90
17726;DHT22;8983;53.156;17.960;2022-09-29T10:23:30;12.00;99.90
17726;DHT22;8983;53.156;17.960;2022-09-29T10:26:04;12.20;99.90
17726;DHT22;8983;53.156;17.960;2022-09-29T10:28:43;12.50;99.90
17726;DHT22;8983;53.156;17.960;2022-09-29T10:31:17;12.80;99.90
17726;DHT22;8983;53.156;17.960;2022-09-29T10:33:48;13.00;99.90
17726;DHT22;8983;53.156;17.960;2022-09-29T10:36:17;13.00;99.90
17726;DHT22;8983;53.156;17.960;2022-09-29T10:38:49;13.10;99.90
17726;DHT22;8983;53.156;17.960;2022-09-29T10:41:19;13.20;99.90
17726;DHT22;8983;53.156;17.960;2022-09-29T10:43:48;13.20;99.90
17726;DHT22;8983;53.156;17.960;2022-09-29T10:46:37;13.30;99.90
17726;DHT22;8983;53.156;17.960;2022-09-29T10:49:12;13.30;99.90
17726;DHT22;8983;53.156;17.960;2022-09-29T10:51:46;13.30;99.90
17726;DHT22;8983;53.156;17.960;2022-09-29T10:54:18;13.20;99.90
17726;DHT22;8983;53.156;17.960;2022-09-29T10:56:53;13.20;99.90
17726;DHT22;8983;53.156;17.960;2022-09-29T10:59:23;13.20;99.90
17726;DHT22;8983;53.156;17.960;2022-09-29T11:01:54;13.20;99.90
17726;DHT22;8983;53.156;17.960;2022-09-29T11:04:25;13.20;99.90
17726;DHT22;8983;53.156;17.960;2022-09-29T11:06:55;13.10;99.90
17726;DHT22;8983;53.156;17.960;2022-09-29T11:09:29;13.40;99.90
17726;DHT22;8983;53.156;17.960;2022-09-29T11:11:59;13.90;99.90
17726;DHT22;8983;53.156;17.960;2022-09-29T11:14:40;14.40;99.90
17726;DHT22;8983;53.156;17.960;2022-09-29T11:17:20;14.90;99.90
17726;DHT22;8983;53.156;17.960;2022-09-29T11:19:50;15.00;99.90
17726;DHT22;8983;53.156;17.960;2022-09-29T11:22:43;15.10;99.90
17726;DHT22;8983;53.156;17.960;2022-09-29T11:25:28;15.60;99.90
17726;DHT22;8983;53.156;17.960;2022-09-29T11:28:15;15.60;99.90
17726;DHT22;8983;53.156;17.960;2022-09-29T11:30:53;15.50;99.90
17726;DHT22;8983;53.156;17.960;2022-09-29T11:33:30;15.20;99.90
17726;DHT22;8983;53.156;17.960;2022-09-29T11:36:07;15.00;99.90
17726;DHT22;8983;53.156;17.960;2022-09-29T11:41:59;14.80;99.90
17726;DHT22;8983;53.156;17.960;2022-09-29T11:44:52;14.80;99.90
17726;DHT22;8983;53.156;17.960;2022-09-29T11:47:47;14.80;99.90
17726;DHT22;8983;53.156;17.960;2022-09-29T11:50:32;15.10;99.90
17726;DHT22;8983;53.156;17.960;2022-09-29T11:53:12;15.60;99.90
17726;DHT22;8983;53.156;17.960;2022-09-29T11:55:55;15.80;99.90
17726;DHT22;8983;53.156;17.960;2022-09-29T11:58:37;15.70;99.90
17726;DHT22;8983;53.156;17.960;2022-09-29T12:01:25;15.60;99.90
17726;DHT22;8983;53.156;17.960;2022-09-29T12:04:08;15.40;99.90
17726;DHT22;8983;53.156;17.960;2022-09-29T12:06:55;15.30;99.90
17726;DHT22;8983;53.156;17.960;2022-09-29T12:09:39;15.10;99.90
17726;DHT22;8983;53.156;17.960;2022-09-29T12:12:15;14.90;99.90
17726;DHT22;8983;53.156;17.960;2022-09-29T12:15:02;14.70;99.90
17726;DHT22;8983;53.156;17.960;2022-09-29T12:17:38;14.70;99.90
17726;DHT22;8983;53.156;17.960;2022-09-29T12:20:16;14.80;99.90
17726;DHT22;8983;53.156;17.960;2022-09-29T12:22:46;15.00;99.90
17726;DHT22;8983;53.156;17.960;2022-09-29T12:25:17;15.30;99.90
17726;DHT22;8983;53.156;17.960;2022-09-29T12:27:48;15.70;99.90
17726;DHT22;8983;53.156;17.960;2022-09-29T12:30:20;15.80;99.90
17726;DHT22;8983;53.156;17.960;2022-09-29T12:32:55;15.80;99.90
17726;DHT22;8983;53.156;17.960;2022-09-29T12:35:30;15.40;99.90
17726;DHT22;8983;53.156;17.960;2022-09-29T12:38:11;15.10;99.90
17726;DHT22;8983;53.156;17.960;2022-09-29T12:40:43;15.10;99.90
17726;DHT22;8983;53.156;17.960;2022-09-29T12:43:19;15.00;99.90
17726;DHT22;8983;53.156;17.960;2022-09-29T12:45:55;14.70;99.90
17726;DHT22;8983;53.156;17.960;2022-09-29T12:48:41;14.50;99.90
17726;DHT22;8983;53.156;17.960;2022-09-29T12:51:19;14.40;99.90
17726;DHT22;8983;53.156;17.960;2022-09-29T12:54:08;14.40;99.90
17726;DHT22;8983;53.156;17.960;2022-09-29T12:56:44;14.50;99.90
17726;DHT22;8983;53.156;17.960;2022-09-29T12:59:26;14.60;99.90
17726;DHT22;8983;53.156;17.960;2022-09-29T13:01:57;14.80;99.90
17726;DHT22;8983;53.156;17.960;2022-09-29T13:04:37;15.00;99.90
17726;DHT22;8983;53.156;17.960;2022-09-29T13:07:30;15.40;99.90
17726;DHT22;8983;53.156;17.960;2022-09-29T13:13:39;16.10;99.90
17726;DHT22;8983;53.156;17.960;2022-09-29T13:16:21;16.30;99.90
17726;DHT22;8983;53.156;17.960;2022-09-29T13:22:25;16.60;99.90
17726;DHT22;8983;53.156;17.960;2022-09-29T13:25:01;17.00;99.90
17726;DHT22;8983;53.156;17.960;2022-09-29T13:27:35;17.30;99.90
17726;DHT22;8983;53.156;17.960;2022-09-29T13:30:12;17.10;99.90
17726;DHT22;8983;53.156;17.960;2022-09-29T13:32:44;16.80;99.90
17726;DHT22;8983;53.156;17.960;2022-09-29T13:35:16;16.90;99.90
17726;DHT22;8983;53.156;17.960;2022-09-29T13:37:51;16.90;99.90
17726;DHT22;8983;53.156;17.960;2022-09-29T13:40:22;17.20;99.90
17726;DHT22;8983;53.156;17.960;2022-09-29T13:42:52;17.30;99.90
17726;DHT22;8983;53.156;17.960;2022-09-29T13:45:40;17.30;99.90
17726;DHT22;8983;53.156;17.960;2022-09-29T13:48:50;17.70;99.90
17726;DHT22;8983;53.156;17.960;2022-09-29T13:51:46;17.50;99.90
17726;DHT22;8983;53.156;17.960;2022-09-29T13:54:25;17.20;99.90
17726;DHT22;8983;53.156;17.960;2022-09-29T13:57:26;17.20;99.90
17726;DHT22;8983;53.156;17.960;2022-09-29T14:00:04;17.60;99.90
17726;DHT22;8983;53.156;17.960;2022-09-29T14:02:40;18.10;99.90
17726;DHT22;8983;53.156;17.960;2022-09-29T14:05:34;18.40;99.90
17726;DHT22;8983;53.156;17.960;2022-09-29T14:08:21;18.60;99.70
17726;DHT22;8983;53.156;17.960;2022-09-29T14:11:02;18.50;99.30
17726;DHT22;8983;53.156;17.960;2022-09-29T14:13:38;18.30;99.30
17726;DHT22;8983;53.156;17.960;2022-09-29T14:16:32;17.80;99.20
17726;DHT22;8983;53.156;17.960;2022-09-29T14:19:04;17.10;99.50
17726;DHT22;8983;53.156;17.960;2022-09-29T14:21:53;16.50;99.90
17726;DHT22;8983;53.156;17.960;2022-09-29T14:24:43;16.20;99.90
17726;DHT22;8983;53.156;17.960;2022-09-29T14:27:30;16.00;99.90
17726;DHT22;8983;53.156;17.960;2022-09-29T14:30:14;15.90;99.90
17726;DHT22;8983;53.156;17.960;2022-09-29T14:32:51;15.90;99.90
17726;DHT22;8983;53.156;17.960;2022-09-29T14:35:29;15.80;99.90
17726;DHT22;8983;53.156;17.960;2022-09-29T14:38:03;15.80;99.90
17726;DHT22;8983;53.156;17.960;2022-09-29T14:40:32;15.80;99.90
17726;DHT22;8983;53.156;17.960;2022-09-29T14:43:12;15.90;99.90
17726;DHT22;8983;53.156;17.960;2022-09-29T14:45:57;15.90;99.90
17726;DHT22;8983;53.156;17.960;2022-09-29T14:48:58;16.00;99.90
17726;DHT22;8983;53.156;17.960;2022-09-29T14:51:58;16.00;99.90
17726;DHT22;8983;53.156;17.960;2022-09-29T14:54:41;15.90;99.90
17726;DHT22;8983;53.156;17.960;2022-09-29T14:57:25;15.90;99.90
17726;DHT22;8983;53.156;17.960;2022-09-29T15:00:05;15.80;99.90
17726;DHT22;8983;53.156;17.960;2022-09-29T15:02:34;15.80;99.90
17726;DHT22;8983;53.156;17.960;2022-09-29T15:05:25;15.80;99.90
17726;DHT22;8983;53.156;17.960;2022-09-29T15:07:57;15.70;99.90
17726;DHT22;8983;53.156;17.960;2022-09-29T15:10:27;15.70;99.90
17726;DHT22;8983;53.156;17.960;2022-09-29T15:13:14;15.60;99.90
17726;DHT22;8983;53.156;17.960;2022-09-29T15:15:47;15.50;99.90
17726;DHT22;8983;53.156;17.960;2022-09-29T15:18:28;15.40;99.90
17726;DHT22;8983;53.156;17.960;2022-09-29T15:21:00;15.30;99.90
17726;DHT22;8983;53.156;17.960;2022-09-29T15:23:44;15.20;99.90
17726;DHT22;8983;53.156;17.960;2022-09-29T15:26:17;15.20;99.90
17726;DHT22;8983;53.156;17.960;2022-09-29T15:28:45;15.00;99.90
17726;DHT22;8983;53.156;17.960;2022-09-29T15:31:18;15.00;99.90
17726;DHT22;8983;53.156;17.960;2022-09-29T15:33:48;15.00;99.90
17726;DHT22;8983;53.156;17.960;2022-09-29T15:36:19;14.90;99.90
17726;DHT22;8983;53.156;17.960;2022-09-29T15:38:51;14.90;99.90
17726;DHT22;8983;53.156;17.960;2022-09-29T15:41:20;14.80;99.90
17726;DHT22;8983;53.156;17.960;2022-09-29T15:43:58;14.70;99.90
17726;DHT22;8983;53.156;17.960;2022-09-29T15:46:36;14.70;99.90
17726;DHT22;8983;53.156;17.960;2022-09-29T15:49:15;14.70;99.90
17726;DHT22;8983;53.156;17.960;2022-09-29T15:51:54;14.70;99.90
17726;DHT22;8983;53.156;17.960;2022-09-29T15:54:24;14.70;99.90
17726;DHT22;8983;53.156;17.960;2022-09-29T15:56:53;14.60;99.90
17726;DHT22;8983;53.156;17.960;2022-09-29T15:59:41;14.60;99.90
17726;DHT22;8983;53.156;17.960;2022-09-29T16:02:21;14.50;99.90
17726;DHT22;8983;53.156;17.960;2022-09-29T16:04:54;14.50;99.90
17726;DHT22;8983;53.156;17.960;2022-09-29T16:07:25;14.20;99.90
17726;DHT22;8983;53.156;17.960;2022-09-29T16:10:01;14.00;99.90
17726;DHT22;8983;53.156;17.960;2022-09-29T16:12:34;13.80;99.90
17726;DHT22;8983;53.156;17.960;2022-09-29T16:15:04;13.80;99.90
17726;DHT22;8983;53.156;17.960;2022-09-29T16:17:34;13.70;99.90
17726;DHT22;8983;53.156;17.960;2022-09-29T16:20:04;13.60;99.90
17726;DHT22;8983;53.156;17.960;2022-09-29T16:22:32;13.60;99.90
17726;DHT22;8983;53.156;17.960;2022-09-29T16:25:19;13.50;99.90
17726;DHT22;8983;53.156;17.960;2022-09-29T16:27:52;13.40;99.90
17726;DHT22;8983;53.156;17.960;2022-09-29T16:30:24;13.30;99.90
17726;DHT22;8983;53.156;17.960;2022-09-29T16:33:12;13.20;99.90
17726;DHT22;8983;53.156;17.960;2022-09-29T16:35:53;13.10;99.90
17726;DHT22;8983;53.156;17.960;2022-09-29T16:38:34;13.00;99.90
17726;DHT22;8983;53.156;17.960;2022-09-29T16:41:18;13.00;99.90